Time;durP1;ratioP1;P1;durP2;ratioP2;P2;SDS_P1;SDS_P2;PMS_P1;PMS_P2;Temp;Humidity;BMP_temperature;BMP_pressure;BME280_temperature;BME280_humidity;BME280_pressure;Samples;Min_cycle;Max_cycle;Signal;HPM_P1;HPM_P2
2023/05/19 00:01:06;;;;;;;0.60;0.60;;;5.90;99.90;;;;;;5068751;28;20040;-74
2023/05/19 00:03:33;;;;;;;0.50;0.50;;;5.90;99.90;;;;;;5059371;28;20048;-74
2023/05/19 00:06:01;;;;;;;0.50;0.50;;;6.00;99.90;;;;;;5048573;28;20390;-74
2023/05/19 00:08:30;;;;;;;0.68;0.68;;;6.00;99.90;;;;;;5048563;28;20075;-74
2023/05/19 00:10:56;;;;;;;0.50;0.50;;;6.00;99.90;;;;;;5048475;28;20051;-75
2023/05/19 00:13:22;;;;;;;0.60;0.60;;;6.00;99.90;;;;;;5048954;28;20048;-73
2023/05/19 00:15:49;;;;;;;0.50;0.50;;;6.00;99.90;;;;;;5068388;28;20090;-74
2023/05/19 00:18:16;;;;;;;0.65;0.65;;;6.10;99.90;;;;;;5068342;28;20040;-74
2023/05/19 00:20:42;;;;;;;0.40;0.40;;;6.10;99.90;;;;;;5067931;28;20394;-73
2023/05/19 00:23:09;;;;;;;0.40;0.40;;;6.30;99.90;;;;;;5087084;28;20131;-73
2023/05/19 00:25:35;;;;;;;0.47;0.47;;;6.10;99.90;;;;;;5079672;28;20372;-76
2023/05/19 00:28:01;;;;;;;0.40;0.40;;;6.30;99.90;;;;;;5051346;28;20526;-75
2023/05/19 00:30:28;;;;;;;0.50;0.50;;;6.20;99.90;;;;;;5068086;28;20129;-76
2023/05/19 00:32:54;;;;;;;0.50;0.50;;;6.20;99.90;;;;;;5067754;28;20048;-76
2023/05/19 00:35:20;;;;;;;0.60;0.60;;;6.30;99.90;;;;;;5051868;28;20044;-76
2023/05/19 00:37:46;;;;;;;;;;;6.40;99.90;;;;;;5068284;28;20119;-75
2023/05/19 00:40:12;;;;;;;0.60;0.60;;;6.40;99.90;;;;;;5068170;28;20019;-75
2023/05/19 00:42:38;;;;;;;0.50;0.50;;;6.40;99.90;;;;;;5074752;28;20126;-76
2023/05/19 00:45:05;;;;;;;0.60;0.60;;;6.50;99.90;;;;;;5092077;28;20478;-75
2023/05/19 00:47:30;;;;;;;0.50;0.50;;;6.60;99.90;;;;;;5051376;28;20044;-76
2023/05/19 00:49:56;;;;;;;0.60;0.60;;;6.70;99.90;;;;;;5067659;28;20401;-75
2023/05/19 00:52:22;;;;;;;0.60;0.60;;;6.60;99.90;;;;;;5081454;28;20450;-76
2023/05/19 00:54:48;;;;;;;0.60;0.60;;;6.60;99.90;;;;;;5070524;28;20513;-75
2023/05/19 00:57:14;;;;;;;0.52;0.52;;;6.60;99.90;;;;;;5051261;28;20044;-76
2023/05/19 00:59:40;;;;;;;0.50;0.50;;;6.50;99.90;;;;;;5050889;28;20040;-76
2023/05/19 01:02:06;;;;;;;0.50;0.50;;;6.40;99.90;;;;;;5068206;28;20485;-75
2023/05/19 01:04:34;;;;;;;0.40;0.40;;;6.40;99.90;;;;;;5068164;28;20056;-76
2023/05/19 01:07:00;;;;;;;0.45;0.45;;;6.40;99.90;;;;;;5067916;28;20052;-76
2023/05/19 01:09:26;;;;;;;0.50;0.50;;;6.40;99.90;;;;;;5069126;28;20036;-75
2023/05/19 01:11:52;;;;;;;0.50;0.50;;;6.50;99.90;;;;;;5071363;28;20500;-76
2023/05/19 01:14:19;;;;;;;0.60;0.60;;;6.60;99.90;;;;;;5071976;28;20059;-74
2023/05/19 01:16:57;;;;;;;0.30;0.30;;;6.50;99.90;;;;;;5071844;28;20382;-74
2023/05/19 01:20:01;;;;;;;0.40;0.40;;;6.50;99.90;;;;;;5055248;28;20044;-75
2023/05/19 01:22:44;;;;;;;0.55;0.55;;;6.50;99.90;;;;;;5084623;28;20048;-74
2023/05/19 01:25:41;;;;;;;0.50;0.50;;;6.60;99.90;;;;;;5103384;28;20504;-74
2023/05/19 01:28:28;;;;;;;0.50;0.50;;;6.60;99.90;;;;;;5071386;28;20059;-74
2023/05/19 01:30:57;;;;;;;0.60;0.60;;;6.60;99.90;;;;;;5071466;28;20070;-74
2023/05/19 01:33:23;;;;;;;0.40;0.40;;;6.60;99.90;;;;;;5071434;28;20036;-75
2023/05/19 01:35:52;;;;;;;0.45;0.45;;;6.50;99.90;;;;;;5070972;28;20051;-75
2023/05/19 01:38:19;;;;;;;0.50;0.50;;;6.40;99.90;;;;;;5071078;28;20052;-74
2023/05/19 01:40:47;;;;;;;0.60;0.60;;;6.30;99.90;;;;;;5070906;28;20543;-74
2023/05/19 01:43:17;;;;;;;0.60;0.60;;;6.30;99.90;;;;;;5083621;28;20093;-74
2023/05/19 01:45:44;;;;;;;0.60;0.60;;;6.30;99.90;;;;;;5072427;28;20440;-74
2023/05/19 01:48:11;;;;;;;0.60;0.60;;;6.40;99.90;;;;;;5071499;28;20063;-74
2023/05/19 01:50:37;;;;;;;0.45;0.45;;;6.30;99.90;;;;;;5038005;28;20127;-74
2023/05/19 01:53:03;;;;;;;0.50;0.50;;;6.30;99.90;;;;;;5086986;28;20115;-74
2023/05/19 01:55:29;;;;;;;0.70;0.70;;;6.30;99.90;;;;;;5071157;28;20432;-74
2023/05/19 01:58:04;;;;;;;0.60;0.60;;;6.20;99.90;;;;;;5070612;28;20045;-74
2023/05/19 02:00:57;;;;;;;0.55;0.55;;;6.30;99.90;;;;;;5072124;28;20087;-75
2023/05/19 02:03:44;;;;;;;0.60;0.60;;;6.30;99.90;;;;;;5071797;28;20091;-75
2023/05/19 02:06:30;;;;;;;0.52;0.52;;;6.30;99.90;;;;;;5071642;28;20036;-75
2023/05/19 02:08:55;;;;;;;0.50;0.50;;;6.30;99.90;;;;;;5070980;28;20041;-74
2023/05/19 02:11:59;;;;;;;0.60;0.60;;;6.20;99.90;;;;;;5071562;28;20055;-74
2023/05/19 02:14:37;;;;;;;0.50;0.50;;;6.20;99.90;;;;;;5071097;28;20075;-75
2023/05/19 02:17:04;;;;;;;0.52;0.52;;;6.20;99.90;;;;;;5070901;28;20163;-75
2023/05/19 02:19:32;;;;;;;0.60;0.60;;;6.20;99.90;;;;;;5090969;28;20051;-74
2023/05/19 02:21:58;;;;;;;0.57;0.57;;;6.20;99.90;;;;;;5090670;28;20226;-74
2023/05/19 02:24:24;;;;;;;0.60;0.60;;;6.20;99.90;;;;;;5074905;28;20047;-75
2023/05/19 02:26:51;;;;;;;0.60;0.60;;;6.10;99.90;;;;;;5071830;28;20520;-74
2023/05/19 02:29:17;;;;;;;0.60;0.60;;;6.20;99.90;;;;;;5071427;28;20046;-74
2023/05/19 02:31:43;;;;;;;;;;;6.20;99.90;;;;;;5071156;28;20044;-74
2023/05/19 02:34:08;;;;;;;0.63;0.63;;;6.20;99.90;;;;;;5054033;28;19920;-74
2023/05/19 02:36:37;;;;;;;0.70;0.70;;;6.10;99.90;;;;;;5054291;28;20045;-74
2023/05/19 02:39:03;;;;;;;0.63;0.63;;;6.00;99.90;;;;;;5053963;28;20051;-75
2023/05/19 02:41:30;;;;;;;0.60;0.60;;;6.10;99.90;;;;;;5070493;28;20040;-74
2023/05/19 02:43:56;;;;;;;0.60;0.60;;;6.30;99.90;;;;;;5067431;28;20127;-74
2023/05/19 02:46:23;;;;;;;0.57;0.57;;;6.20;99.90;;;;;;5070319;28;20040;-74
2023/05/19 02:48:49;;;;;;;0.50;0.50;;;6.10;99.90;;;;;;5069997;28;20086;-74
2023/05/19 02:51:15;;;;;;;0.60;0.60;;;6.10;99.90;;;;;;5056510;28;20043;-74
2023/05/19 02:53:40;;;;;;;0.47;0.47;;;6.00;99.90;;;;;;5058062;28;20044;-74
2023/05/19 02:56:06;;;;;;;0.60;0.60;;;5.90;99.90;;;;;;5069772;28;20086;-74
2023/05/19 02:58:32;;;;;;;0.68;0.68;;;5.90;99.90;;;;;;5053596;28;20040;-74
2023/05/19 03:00:57;;;;;;;0.60;0.60;;;5.80;99.90;;;;;;5069608;28;20076;-74
2023/05/19 03:03:23;;;;;;;0.65;0.65;;;5.80;99.90;;;;;;5069808;28;20047;-75
2023/05/19 03:05:49;;;;;;;0.50;0.50;;;5.80;99.90;;;;;;5069313;28;20055;-74
2023/05/19 03:08:14;;;;;;;0.55;0.55;;;5.90;99.90;;;;;;5069785;28;20371;-75
2023/05/19 03:10:40;;;;;;;0.50;0.50;;;5.90;99.90;;;;;;5053399;28;20036;-74
2023/05/19 03:13:05;;;;;;;0.60;0.60;;;5.90;99.90;;;;;;5052506;28;20392;-74
2023/05/19 03:15:32;;;;;;;0.60;0.60;;;5.80;99.90;;;;;;5087264;28;20071;-75
2023/05/19 03:17:57;;;;;;;;;;;5.70;99.90;;;;;;5056242;28;20075;-74
2023/05/19 03:20:23;;;;;;;0.47;0.47;;;5.70;99.90;;;;;;5089847;28;20345;-74
2023/05/19 03:22:49;;;;;;;0.52;0.52;;;5.60;99.90;;;;;;5089028;28;20088;-74
2023/05/19 03:25:15;;;;;;;0.60;0.60;;;5.60;99.90;;;;;;5083098;28;20493;-74
2023/05/19 03:27:43;;;;;;;0.40;0.40;;;5.50;99.90;;;;;;5052079;28;20139;-75
2023/05/19 03:30:09;;;;;;;0.60;0.60;;;5.40;99.90;;;;;;5035097;28;20532;-74
2023/05/19 03:32:36;;;;;;;0.70;0.70;;;5.40;99.90;;;;;;5068026;28;20072;-74
2023/05/19 03:35:04;;;;;;;0.70;0.70;;;5.40;99.90;;;;;;5052135;28;20067;-74
2023/05/19 03:37:31;;;;;;;0.55;0.55;;;5.40;99.90;;;;;;5069314;28;20040;-74
2023/05/19 03:39:57;;;;;;;0.60;0.60;;;5.40;99.90;;;;;;5069102;28;20405;-74
2023/05/19 03:42:23;;;;;;;0.98;0.98;;;5.50;99.90;;;;;;5057461;28;20055;-75
2023/05/19 03:44:49;;;;;;;0.70;0.70;;;5.30;99.90;;;;;;5094526;28;20048;-74
2023/05/19 03:47:15;;;;;;;;;;;5.20;99.90;;;;;;5069781;28;20051;-74
2023/05/19 03:49:40;;;;;;;0.45;0.45;;;5.30;99.90;;;;;;5067972;28;19991;-74
2023/05/19 03:52:06;;;;;;;0.60;0.60;;;5.20;99.90;;;;;;5068619;28;20132;-75
2023/05/19 03:54:32;;;;;;;0.57;0.57;;;5.20;99.90;;;;;;5052380;28;20044;-74
2023/05/19 03:56:58;;;;;;;0.60;0.60;;;5.20;99.90;;;;;;5068675;28;20440;-74
2023/05/19 03:59:23;;;;;;;0.60;0.60;;;5.10;99.90;;;;;;5071687;28;20048;-74
2023/05/19 04:01:50;;;;;;;0.60;0.60;;;5.20;99.90;;;;;;5051582;28;20505;-76
2023/05/19 04:04:15;;;;;;;0.40;0.40;;;5.20;99.90;;;;;;5068493;28;20045;-74
2023/05/19 04:06:41;;;;;;;0.60;0.60;;;5.20;99.90;;;;;;5069430;28;20068;-75
2023/05/19 04:09:12;;;;;;;0.50;0.50;;;5.20;99.90;;;;;;5052168;28;20735;-75
2023/05/19 04:11:39;;;;;;;0.68;0.68;;;5.30;99.90;;;;;;5068448;28;20040;-75
2023/05/19 04:14:05;;;;;;;0.60;0.60;;;5.30;99.90;;;;;;5082114;28;20064;-75
2023/05/19 04:16:31;;;;;;;0.50;0.50;;;5.40;99.90;;;;;;5068612;28;20063;-75
2023/05/19 04:18:57;;;;;;;;;;;5.40;99.90;;;;;;5052364;28;20051;-74
2023/05/19 04:21:22;;;;;;;0.60;0.60;;;5.50;99.90;;;;;;5069063;28;19920;-74
2023/05/19 04:23:48;;;;;;;0.60;0.60;;;5.50;99.90;;;;;;5068909;28;20135;-75
2023/05/19 04:26:14;;;;;;;0.85;0.85;;;5.60;99.90;;;;;;5068470;28;20127;-74
2023/05/19 04:28:43;;;;;;;;;;;5.70;99.90;;;;;;5068298;28;20135;-74
2023/05/19 04:31:09;;;;;;;0.50;0.50;;;5.80;99.90;;;;;;5067614;28;20645;-75
2023/05/19 04:33:39;;;;;;;0.60;0.60;;;5.90;99.90;;;;;;5068319;28;20040;-75
2023/05/19 04:36:09;;;;;;;0.60;0.60;;;5.90;99.90;;;;;;5068014;28;20445;-75
2023/05/19 04:38:41;;;;;;;0.70;0.70;;;6.00;99.90;;;;;;5068161;28;20079;-75
2023/05/19 04:41:10;;;;;;;0.60;0.60;;;6.10;99.90;;;;;;5068099;28;20493;-75
2023/05/19 04:43:40;;;;;;;0.50;0.50;;;6.10;99.90;;;;;;5081466;28;20040;-75
2023/05/19 04:46:07;;;;;;;0.50;0.50;;;6.20;99.90;;;;;;5031735;28;20045;-74
2023/05/19 04:48:32;;;;;;;0.55;0.55;;;6.30;99.90;;;;;;5055667;28;20119;-75
2023/05/19 04:51:01;;;;;;;0.40;0.40;;;6.40;99.90;;;;;;5067714;28;20076;-75
2023/05/19 04:53:30;;;;;;;0.50;0.50;;;6.50;99.90;;;;;;5068015;28;20044;-75
2023/05/19 04:55:57;;;;;;;0.50;0.50;;;6.70;99.90;;;;;;5067819;28;20148;-75
2023/05/19 04:58:26;;;;;;;0.55;0.55;;;6.70;99.90;;;;;;5067964;28;20044;-75
2023/05/19 05:00:54;;;;;;;0.60;0.60;;;6.80;99.90;;;;;;5068351;28;20052;-76
2023/05/19 05:03:21;;;;;;;0.50;0.50;;;7.00;99.90;;;;;;5068646;28;20048;-75
2023/05/19 05:05:47;;;;;;;0.60;0.60;;;7.10;99.90;;;;;;5067732;28;20142;-75
2023/05/19 05:08:15;;;;;;;0.60;0.60;;;7.30;99.90;;;;;;5067646;28;20040;-75
2023/05/19 05:10:41;;;;;;;0.50;0.50;;;7.40;99.90;;;;;;5067768;28;20490;-75
2023/05/19 05:13:07;;;;;;;0.60;0.60;;;7.50;99.90;;;;;;5067850;28;20040;-75
2023/05/19 05:15:32;;;;;;;;;;;7.60;99.90;;;;;;5068159;28;20076;-75
2023/05/19 05:17:59;;;;;;;0.50;0.50;;;7.70;99.90;;;;;;5067133;28;20045;-75
2023/05/19 05:20:25;;;;;;;0.47;0.47;;;7.70;99.90;;;;;;5050742;28;20045;-76
2023/05/19 05:22:51;;;;;;;;;;;7.80;99.90;;;;;;5068374;28;20051;-75
2023/05/19 05:25:17;;;;;;;0.45;0.45;;;7.90;99.90;;;;;;5067165;28;20304;-75
2023/05/19 05:27:43;;;;;;;0.50;0.50;;;8.00;99.90;;;;;;5050829;28;20053;-75
2023/05/19 05:30:08;;;;;;;0.38;0.38;;;8.10;99.90;;;;;;5050705;28;20059;-75
2023/05/19 05:32:34;;;;;;;0.50;0.50;;;8.20;99.90;;;;;;5067983;28;20041;-75
2023/05/19 05:35:00;;;;;;;0.40;0.40;;;8.30;99.90;;;;;;5067129;28;20505;-74
2023/05/19 05:37:26;;;;;;;0.50;0.50;;;8.50;99.90;;;;;;5067652;28;20052;-75
2023/05/19 05:39:52;;;;;;;0.65;0.65;;;8.60;99.90;;;;;;5067585;28;20051;-75
2023/05/19 05:42:19;;;;;;;0.50;0.50;;;8.70;99.90;;;;;;5056145;28;20127;-75
2023/05/19 05:44:44;;;;;;;0.85;0.85;;;8.70;99.90;;;;;;5093936;28;20057;-75
2023/05/19 05:47:11;;;;;;;0.45;0.45;;;8.80;99.90;;;;;;5067496;28;20044;-75
2023/05/19 05:49:37;;;;;;;0.40;0.40;;;8.90;99.90;;;;;;5050947;28;20041;-76
2023/05/19 05:52:04;;;;;;;0.40;0.40;;;8.90;99.90;;;;;;5078346;28;20051;-76
2023/05/19 05:54:30;;;;;;;0.50;0.50;;;9.00;99.90;;;;;;5056256;28;20444;-76
2023/05/19 05:56:56;;;;;;;0.45;0.45;;;9.00;99.90;;;;;;5070581;28;20040;-76
2023/05/19 05:59:22;;;;;;;0.40;0.40;;;9.00;99.90;;;;;;5054989;28;20048;-75
2023/05/19 06:01:47;;;;;;;0.50;0.50;;;9.10;99.90;;;;;;5071635;28;20473;-76
2023/05/19 06:04:13;;;;;;;0.30;0.30;;;9.20;99.90;;;;;;5070799;28;20473;-75
2023/05/19 06:06:38;;;;;;;0.30;0.30;;;9.20;99.90;;;;;;5077002;28;20448;-76
2023/05/19 06:09:04;;;;;;;0.47;0.47;;;9.30;99.90;;;;;;5090846;28;20123;-75
2023/05/19 06:11:30;;;;;;;0.30;0.30;;;9.40;99.90;;;;;;5090663;28;20039;-75
2023/05/19 06:13:56;;;;;;;0.50;0.50;;;9.40;99.90;;;;;;5069212;28;20405;-76
2023/05/19 06:16:21;;;;;;;0.47;0.47;;;9.50;99.90;;;;;;5070098;28;20037;-75
2023/05/19 06:18:47;;;;;;;0.40;0.40;;;9.60;99.90;;;;;;5071801;28;20040;-75
2023/05/19 06:21:13;;;;;;;0.63;0.63;;;9.60;99.90;;;;;;5054711;28;20070;-75
2023/05/19 06:23:40;;;;;;;;;;;9.80;99.90;;;;;;5071018;28;20124;-75
2023/05/19 06:26:05;;;;;;;0.40;0.40;;;9.90;99.90;;;;;;5070140;28;19920;-76
2023/05/19 06:28:32;;;;;;;0.40;0.40;;;9.90;99.90;;;;;;5053537;28;20063;-76
2023/05/19 06:30:58;;;;;;;0.30;0.30;;;10.00;99.90;;;;;;5070732;28;20117;-75
2023/05/19 06:33:24;;;;;;;0.55;0.55;;;10.20;99.90;;;;;;5070709;28;20035;-75
2023/05/19 06:35:50;;;;;;;0.40;0.40;;;10.30;99.90;;;;;;5070458;28;20200;-75
2023/05/19 06:38:16;;;;;;;0.40;0.40;;;10.40;99.90;;;;;;5036561;28;20127;-75
2023/05/19 06:40:42;;;;;;;0.30;0.30;;;10.60;99.90;;;;;;5050590;28;20115;-74
2023/05/19 06:43:08;;;;;;;0.50;0.50;;;10.80;99.90;;;;;;5055553;28;20051;-75
2023/05/19 06:45:34;;;;;;;0.30;0.30;;;10.90;99.90;;;;;;5073057;28;20045;-75
2023/05/19 06:48:00;;;;;;;0.85;0.85;;;11.10;99.90;;;;;;5069964;28;20032;-75
2023/05/19 06:50:25;;;;;;;1.92;1.75;;;11.20;99.90;;;;;;5054241;28;20037;-76
2023/05/19 06:52:51;;;;;;;0.30;0.30;;;11.30;99.90;;;;;;5053653;28;20036;-75
2023/05/19 06:55:17;;;;;;;0.30;0.30;;;11.30;99.90;;;;;;5053265;28;20501;-75
2023/05/19 06:57:43;;;;;;;0.55;0.55;;;11.40;99.90;;;;;;5070232;28;20052;-75
2023/05/19 07:00:11;;;;;;;0.50;0.50;;;11.50;99.90;;;;;;5053002;28;20127;-75
2023/05/19 07:02:37;;;;;;;0.40;0.40;;;11.70;99.90;;;;;;5070248;28;20398;-75
2023/05/19 07:05:03;;;;;;;0.40;0.40;;;11.90;99.90;;;;;;5069281;28;20056;-74
2023/05/19 07:07:29;;;;;;;;;;;12.00;99.90;;;;;;5082583;28;20079;-75
2023/05/19 07:09:55;;;;;;;0.30;0.30;;;12.10;99.90;;;;;;5089369;28;20005;-75
2023/05/19 07:12:20;;;;;;;0.50;0.50;;;12.20;99.90;;;;;;5088886;28;20040;-75
2023/05/19 07:14:46;;;;;;;0.30;0.30;;;12.40;99.90;;;;;;5094462;28;20422;-75
2023/05/19 07:17:12;;;;;;;0.75;0.65;;;12.50;99.90;;;;;;5069104;28;20044;-75
2023/05/19 07:19:38;;;;;;;0.32;0.32;;;12.70;99.90;;;;;;5069456;28;20051;-74
2023/05/19 07:22:03;;;;;;;1.20;1.10;;;12.80;99.90;;;;;;5069019;28;20087;-74
2023/05/19 07:24:30;;;;;;;0.35;0.35;;;12.90;99.90;;;;;;5069261;28;20049;-75
2023/05/19 07:26:56;;;;;;;0.30;0.30;;;13.10;99.90;;;;;;5068466;28;20117;-74
2023/05/19 07:29:22;;;;;;;0.40;0.40;;;13.30;99.90;;;;;;5068766;28;20056;-74
2023/05/19 07:31:52;;;;;;;0.30;0.30;;;13.40;99.90;;;;;;5069673;28;20327;-74
2023/05/19 07:34:19;;;;;;;0.25;0.25;;;13.50;99.90;;;;;;5067976;28;20044;-76
2023/05/19 07:36:45;;;;;;;0.30;0.30;;;13.60;99.90;;;;;;5069134;28;20055;-75
2023/05/19 07:39:11;;;;;;;0.30;0.30;;;13.70;99.90;;;;;;5051829;28;20048;-76
2023/05/19 07:41:36;;;;;;;0.40;0.40;;;13.80;99.90;;;;;;5069044;28;20511;-76
2023/05/19 07:44:06;;;;;;;0.40;0.40;;;13.90;99.90;;;;;;5083284;28;20121;-76
2023/05/19 07:46:33;;;;;;;0.40;0.40;;;13.90;99.90;;;;;;5069575;28;20687;-76
2023/05/19 07:48:58;;;;;;;0.50;0.50;;;14.00;99.90;;;;;;5068609;28;20040;-76
2023/05/19 07:51:24;;;;;;;0.47;0.47;;;14.10;99.90;;;;;;5068846;28;20115;-76
2023/05/19 07:53:50;;;;;;;0.40;0.40;;;14.20;99.90;;;;;;5069024;28;20417;-76
2023/05/19 07:56:15;;;;;;;;;;;14.20;99.90;;;;;;5051869;28;20041;-76
2023/05/19 07:58:41;;;;;;;0.30;0.30;;;14.30;99.90;;;;;;5068886;28;19920;-75
2023/05/19 08:01:07;;;;;;;;;;;14.40;99.90;;;;;;5068756;28;20049;-76
2023/05/19 08:03:32;;;;;;;0.22;0.22;;;14.60;99.90;;;;;;5080867;28;19920;-76
2023/05/19 08:05:58;;;;;;;0.30;0.30;;;14.70;99.90;;;;;;5089504;28;20082;-75
2023/05/19 08:08:24;;;;;;;0.40;0.40;;;14.70;99.90;;;;;;5088874;28;20036;-76
2023/05/19 08:10:50;;;;;;;;;;;14.70;99.90;;;;;;5089385;28;20047;-76
2023/05/19 08:13:15;;;;;;;0.30;0.30;;;14.70;99.90;;;;;;5088392;28;19920;-75
2023/05/19 08:15:41;;;;;;;0.30;0.30;;;14.70;99.90;;;;;;5052369;28;20033;-75
2023/05/19 08:18:07;;;;;;;0.30;0.30;;;14.70;99.90;;;;;;5068817;28;20040;-75
2023/05/19 08:20:32;;;;;;;0.30;0.30;;;14.70;99.90;;;;;;5051642;28;20090;-76
2023/05/19 08:22:58;;;;;;;;;;;14.70;99.90;;;;;;5069343;28;20044;-76
2023/05/19 08:25:24;;;;;;;0.28;0.28;;;14.80;99.90;;;;;;5067691;28;19994;-76
2023/05/19 08:27:50;;;;;;;;;;;14.90;99.90;;;;;;5068739;28;20057;-75
2023/05/19 08:30:15;;;;;;;0.30;0.30;;;15.10;99.90;;;;;;5067892;28;19916;-76
2023/05/19 08:32:41;;;;;;;0.30;0.30;;;15.10;99.90;;;;;;5068352;28;20044;-76
2023/05/19 08:35:07;;;;;;;0.25;0.25;;;15.20;99.90;;;;;;5068627;28;20040;-76
2023/05/19 08:37:35;;;;;;;0.50;0.50;;;15.30;99.90;;;;;;5051560;28;20075;-76
2023/05/19 08:40:03;;;;;;;0.47;0.47;;;15.40;99.90;;;;;;5068176;28;20561;-76
2023/05/19 08:42:29;;;;;;;0.30;0.30;;;15.40;99.90;;;;;;5073759;28;20157;-76
2023/05/19 08:44:55;;;;;;;1.35;0.32;;;15.50;99.90;;;;;;5093379;28;20480;-76
2023/05/19 08:47:21;;;;;;;;;;;15.50;99.90;;;;;;5068587;28;20091;-75
2023/05/19 08:49:51;;;;;;;0.30;0.30;;;15.70;99.90;;;;;;5068445;28;19920;-76
2023/05/19 08:52:48;;;;;;;0.32;0.32;;;15.80;99.90;;;;;;5067742;28;20113;-76
2023/05/19 08:55:32;;;;;;;0.70;0.70;;;15.70;99.90;;;;;;5049564;28;20045;-76
2023/05/19 08:58:00;;;;;;;0.30;0.30;;;15.80;99.90;;;;;;5048206;28;20494;-77
2023/05/19 09:00:27;;;;;;;0.20;0.20;;;15.90;99.90;;;;;;5081627;28;20105;-76
2023/05/19 09:02:53;;;;;;;0.50;0.50;;;15.90;99.90;;;;;;5072078;28;20089;-76
2023/05/19 09:05:19;;;;;;;0.40;0.40;;;16.00;99.90;;;;;;5088402;28;20113;-73
2023/05/19 09:07:47;;;;;;;0.20;0.20;;;16.00;99.90;;;;;;5089190;28;20043;-76
2023/05/19 09:10:14;;;;;;;0.30;0.30;;;16.10;99.90;;;;;;5106908;28;20040;-75
2023/05/19 09:12:46;;;;;;;0.30;0.30;;;16.00;99.90;;;;;;5056115;28;20032;-76
2023/05/19 09:15:12;;;;;;;0.40;0.40;;;16.10;99.90;;;;;;5072647;28;20049;-75
2023/05/19 09:17:38;;;;;;;0.60;0.60;;;16.00;99.90;;;;;;5067981;28;20072;-75
2023/05/19 09:20:09;;;;;;;;;;;16.10;99.90;;;;;;5068347;28;20498;-75
2023/05/19 09:22:46;;;;;;;1.08;0.52;;;16.10;99.90;;;;;;5067733;28;19926;-75
2023/05/19 09:25:21;;;;;;;0.30;0.30;;;16.00;99.90;;;;;;5067365;28;20041;-75
2023/05/19 09:27:47;;;;;;;0.13;0.13;;;16.00;99.90;;;;;;5068377;28;20446;-75
2023/05/19 09:30:15;;;;;;;0.40;0.40;;;16.00;99.90;;;;;;5069524;28;20146;-74
2023/05/19 09:32:40;;;;;;;0.30;0.30;;;16.10;99.90;;;;;;5072221;28;20040;-75
2023/05/19 09:35:07;;;;;;;0.30;0.30;;;16.20;99.90;;;;;;5072131;28;20447;-76
2023/05/19 09:37:32;;;;;;;;;;;16.30;99.90;;;;;;5072034;28;20044;-75
2023/05/19 09:39:58;;;;;;;0.20;0.20;;;16.30;99.90;;;;;;5072347;28;19969;-75
2023/05/19 09:42:29;;;;;;;1.38;1.23;;;16.30;99.90;;;;;;5071468;28;20041;-76
2023/05/19 09:45:04;;;;;;;0.30;0.30;;;16.20;99.90;;;;;;5071454;28;20041;-75
2023/05/19 09:47:34;;;;;;;0.30;0.30;;;16.20;99.90;;;;;;5054394;28;20090;-75
2023/05/19 09:49:59;;;;;;;0.30;0.30;;;16.10;99.90;;;;;;5071983;28;20075;-75
2023/05/19 09:52:26;;;;;;;0.20;0.20;;;16.00;99.90;;;;;;5067851;28;20358;-76
2023/05/19 09:54:53;;;;;;;0.25;0.25;;;16.10;99.90;;;;;;5075260;28;20044;-75
2023/05/19 09:57:25;;;;;;;0.63;0.40;;;16.30;99.90;;;;;;5074582;28;20051;-75
2023/05/19 09:59:52;;;;;;;0.30;0.30;;;16.30;99.70;;;;;;5091583;28;20052;-75
2023/05/19 10:02:20;;;;;;;0.45;0.45;;;16.40;99.90;;;;;;5108446;28;20118;-75
2023/05/19 10:04:47;;;;;;;0.38;0.38;;;16.40;99.90;;;;;;5108355;28;20396;-76
2023/05/19 10:07:14;;;;;;;0.63;0.63;;;16.50;99.90;;;;;;5091542;28;20079;-75
2023/05/19 10:09:41;;;;;;;0.40;0.40;;;16.50;99.90;;;;;;5108088;28;20151;-74
2023/05/19 10:12:09;;;;;;;0.30;0.30;;;16.50;99.90;;;;;;5074733;28;20054;-75
2023/05/19 10:14:36;;;;;;;0.30;0.30;;;16.50;99.90;;;;;;5080329;28;20090;-75
2023/05/19 10:17:03;;;;;;;0.30;0.30;;;16.50;99.90;;;;;;5070854;28;20048;-75
2023/05/19 10:19:30;;;;;;;0.50;0.50;;;16.50;99.90;;;;;;5053718;28;20080;-75
2023/05/19 10:21:55;;;;;;;0.30;0.30;;;16.70;99.90;;;;;;5048624;28;20417;-75
2023/05/19 10:24:21;;;;;;;0.20;0.20;;;16.70;98.20;;;;;;5049845;28;20048;-74
2023/05/19 10:26:50;;;;;;;;;;;16.70;97.50;;;;;;5069161;28;20065;-75
2023/05/19 10:29:24;;;;;;;0.30;0.30;;;16.70;96.20;;;;;;5056068;28;20428;-75
2023/05/19 10:31:51;;;;;;;0.20;0.20;;;16.80;99.90;;;;;;5071907;28;20499;-75
2023/05/19 10:34:59;;;;;;;0.47;0.47;;;16.90;95.80;;;;;;5070534;28;20492;-75
2023/05/19 10:37:25;;;;;;;0.55;0.55;;;16.90;99.90;;;;;;5069533;28;20044;-75
2023/05/19 10:39:52;;;;;;;0.30;0.30;;;17.00;99.00;;;;;;5071081;28;20528;-75
2023/05/19 10:42:32;;;;;;;0.40;0.40;;;17.10;97.70;;;;;;5073212;28;20448;-76
2023/05/19 10:45:22;;;;;;;0.20;0.20;;;17.20;99.10;;;;;;5078108;28;20072;-75
2023/05/19 10:47:50;;;;;;;0.50;0.45;;;17.20;96.60;;;;;;5070098;28;20052;-76
2023/05/19 10:50:16;;;;;;;0.20;0.20;;;17.10;96.50;;;;;;5070153;28;20044;-76
2023/05/19 10:52:43;;;;;;;0.20;0.20;;;17.10;99.20;;;;;;5084681;28;20040;-75
2023/05/19 10:55:16;;;;;;;0.45;0.43;;;17.20;96.90;;;;;;5050705;28;20132;-75
2023/05/19 10:57:57;;;;;;;0.28;0.28;;;17.30;95.70;;;;;;5049884;28;20045;-74
2023/05/19 11:00:27;;;;;;;0.30;0.30;;;17.40;99.10;;;;;;5049553;28;20490;-74
2023/05/19 11:02:56;;;;;;;0.15;0.15;;;17.60;97.60;;;;;;5049713;28;20040;-74
2023/05/19 11:05:28;;;;;;;0.30;0.30;;;17.70;97.00;;;;;;5049492;28;20396;-75
2023/05/19 11:08:03;;;;;;;0.47;0.47;;;18.00;98.00;;;;;;5033840;28;20041;-76
2023/05/19 11:10:29;;;;;;;0.20;0.20;;;18.10;96.90;;;;;;5049246;28;20045;-75
2023/05/19 11:12:56;;;;;;;;;;;18.20;94.90;;;;;;5033671;28;20052;-74
2023/05/19 11:15:26;;;;;;;0.30;0.30;;;18.30;98.20;;;;;;5066097;28;19923;-75
2023/05/19 11:17:52;;;;;;;0.20;0.20;;;18.50;99.20;;;;;;5049523;28;20083;-76
2023/05/19 11:20:26;;;;;;;0.40;0.40;;;18.70;95.00;;;;;;5049562;28;20076;-76
2023/05/19 11:23:06;;;;;;;0.30;0.30;;;18.70;96.40;;;;;;5033311;28;20385;-75
2023/05/19 11:25:42;;;;;;;0.25;0.25;;;18.60;96.60;;;;;;5057277;28;20051;-75
2023/05/19 11:28:10;;;;;;;1.02;0.93;;;18.50;90.00;;;;;;5069384;28;20146;-76
2023/05/19 11:30:37;;;;;;;0.55;0.55;;;18.40;94.00;;;;;;5068762;28;20051;-75
2023/05/19 11:33:04;;;;;;;0.40;0.40;;;18.50;98.50;;;;;;5069190;28;20054;-75
2023/05/19 11:35:31;;;;;;;0.65;0.65;;;18.30;91.10;;;;;;5051766;28;20564;-74
2023/05/19 11:37:58;;;;;;;0.55;0.55;;;18.30;90.20;;;;;;5069755;28;20413;-77
2023/05/19 11:40:24;;;;;;;0.43;0.43;;;18.30;93.50;;;;;;5068239;28;20059;-76
2023/05/19 11:42:50;;;;;;;0.40;0.40;;;18.40;91.50;;;;;;5078346;28;20149;-75
2023/05/19 11:45:16;;;;;;;;;;;18.50;91.60;;;;;;5058344;28;20091;-76
2023/05/19 11:47:44;;;;;;;0.60;0.60;;;18.60;89.30;;;;;;5073379;28;19916;-75
2023/05/19 11:50:11;;;;;;;0.50;0.50;;;18.70;92.90;;;;;;5072254;28;20105;-77
2023/05/19 11:52:42;;;;;;;0.20;0.20;;;18.90;93.60;;;;;;5054783;28;20070;-75
2023/05/19 11:55:13;;;;;;;0.20;0.20;;;19.10;89.80;;;;;;5048539;28;20131;-75
2023/05/19 11:57:39;;;;;;;0.25;0.25;;;19.10;91.40;;;;;;5049384;28;20060;-75
2023/05/19 12:00:07;;;;;;;;;;;19.10;95.40;;;;;;5032604;28;20067;-76
2023/05/19 12:02:35;;;;;;;0.15;0.15;;;19.20;92.10;;;;;;5048663;28;19951;-75
2023/05/19 12:05:00;;;;;;;0.20;0.20;;;19.10;89.50;;;;;;5048212;28;20769;-75
2023/05/19 12:07:26;;;;;;;;;;;19.20;93.30;;;;;;5048919;28;20436;-75
2023/05/19 12:09:53;;;;;;;0.30;0.30;;;19.30;95.80;;;;;;5048943;28;19927;-76
2023/05/19 12:12:21;;;;;;;0.30;0.30;;;19.50;93.70;;;;;;5048866;28;20048;-74
2023/05/19 12:14:48;;;;;;;0.30;0.30;;;19.60;89.50;;;;;;5051543;28;20041;-74
2023/05/19 12:17:18;;;;;;;0.20;0.20;;;19.60;85.30;;;;;;5048611;28;20053;-75
2023/05/19 12:19:45;;;;;;;0.20;0.20;;;19.70;91.90;;;;;;5048764;28;20177;-76
2023/05/19 12:22:11;;;;;;;0.50;0.50;;;19.70;88.50;;;;;;5048271;28;20509;-76
2023/05/19 12:24:38;;;;;;;0.20;0.20;;;19.90;88.20;;;;;;5015178;28;20692;-76
2023/05/19 12:27:15;;;;;;;0.20;0.20;;;19.90;92.00;;;;;;5068629;28;20048;-76
2023/05/19 12:29:41;;;;;;;0.22;0.22;;;20.20;92.70;;;;;;5068548;28;20040;-77
2023/05/19 12:32:08;;;;;;;0.20;0.20;;;20.60;88.80;;;;;;5068337;28;20040;-75
2023/05/19 12:34:37;;;;;;;0.20;0.20;;;21.00;91.40;;;;;;5068035;28;20051;-75
2023/05/19 12:37:06;;;;;;;0.30;0.30;;;21.30;91.80;;;;;;5068176;28;20153;-75
2023/05/19 12:39:32;;;;;;;0.20;0.20;;;21.40;89.60;;;;;;5051093;28;20048;-76
2023/05/19 12:42:16;;;;;;;0.20;0.20;;;21.50;89.80;;;;;;5069741;28;20055;-74
2023/05/19 12:44:53;;;;;;;0.20;0.20;;;21.70;89.10;;;;;;5094258;28;20037;-76
2023/05/19 12:47:19;;;;;;;1.45;1.38;;;21.90;90.40;;;;;;5068085;28;20041;-75
2023/05/19 12:49:57;;;;;;;0.30;0.30;;;22.10;91.70;;;;;;5051216;28;20048;-75
2023/05/19 12:52:23;;;;;;;0.20;0.20;;;21.90;85.60;;;;;;5081801;28;20067;-76
2023/05/19 12:54:51;;;;;;;0.32;0.32;;;21.80;87.10;;;;;;5070350;28;20044;-76
2023/05/19 12:57:16;;;;;;;0.30;0.30;;;21.90;86.10;;;;;;5068834;28;20051;-75
2023/05/19 12:59:42;;;;;;;0.20;0.20;;;22.00;86.40;;;;;;5050767;28;20342;-75
2023/05/19 13:02:08;;;;;;;0.40;0.40;;;22.20;83.80;;;;;;5035337;28;20055;-75